< < Back
Terminal Aerodrome Forecast


Current Version              Previous Versions:   1  2  3  4  5  6  7  8  9  

Terminal Aerodrome Forecast

764
FTUS44 KMRX 200336 AAA
TAFCHA
TAF AMD
KCHA 200336Z 2004/2024 00000KT P6SM SCT060 BKN080
     FM201400 13004KT P6SM SCT040=



Latest METAR

877
SAUS80 KWBC 201200
MTRCHA
METAR KCHA 201153Z 00000KT 10SM FEW070 18/16 A3017 RMK AO2 SLP210
T01780156 10211 20172 53013


USA.gov is the U.S. government's official web portal to all federal, state and local government web resources and services.